Time;durP1;ratioP1;P1;durP2;ratioP2;P2;SDS_P1;SDS_P2;PMS_P1;PMS_P2;Temp;Humidity;BMP_temperature;BMP_pressure;BME280_temperature;BME280_humidity;BME280_pressure;Samples;Min_cycle;Max_cycle;Signal;HPM_P1;HPM_P2
2024/01/30 00:01:43;;;;;;;0.10;0.10;;;;;;;;;;4998131;28;20041;-84
2024/01/30 00:04:09;;;;;;;0.20;0.20;;;;;;;;;;4982167;28;20041;-84
2024/01/30 00:06:35;;;;;;;0.10;0.10;;;;;;;;;;5014583;28;20120;-84
2024/01/30 00:09:01;;;;;;;0.10;0.10;;;;;;;;;;4981997;28;20038;-84
2024/01/30 00:11:28;;;;;;;0.10;0.10;;;;;;;;;;4998200;28;20108;-84
2024/01/30 00:13:58;;;;;;;0.20;0.20;;;;;;;;;;4998348;28;20544;-83
2024/01/30 00:16:24;;;;;;;0.10;0.10;;;;;;;;;;4982132;28;20485;-83
2024/01/30 00:18:53;;;;;;;0.20;0.20;;;;;;;;;;4981864;28;20098;-84
2024/01/30 00:21:19;;;;;;;0.68;0.68;;;;;;;;;;4981822;28;20080;-83
2024/01/30 00:23:45;;;;;;;0.20;0.20;;;;;;;;;;4981601;28;20169;-84
2024/01/30 00:26:11;;;;;;;0.10;0.10;;;;;;;;;;4982043;28;20038;-84
2024/01/30 00:28:38;;;;;;;0.10;0.10;;;;;;;;;;4981956;28;20042;-83
2024/01/30 00:31:04;;;;;;;0.22;0.22;;;;;;;;;;4997734;28;20038;-84
2024/01/30 00:33:30;;;;;;;0.10;0.10;;;;;;;;;;4981524;28;20048;-83
2024/01/30 00:35:56;;;;;;;0.10;0.10;;;;;;;;;;4997583;28;20042;-83
2024/01/30 00:38:22;;;;;;;0.25;0.20;;;;;;;;;;4997583;28;20169;-84
2024/01/30 00:40:49;;;;;;;0.20;0.20;;;;;;;;;;4997554;28;20049;-83
2024/01/30 00:43:15;;;;;;;0.10;0.10;;;;;;;;;;4981361;28;20048;-83
2024/01/30 00:45:41;;;;;;;0.22;0.20;;;;;;;;;;4997747;28;20038;-83
2024/01/30 00:48:07;;;;;;;0.10;0.10;;;;;;;;;;4997815;28;20409;-83
2024/01/30 00:50:33;;;;;;;0.10;0.10;;;;;;;;;;4997447;28;20045;-84
2024/01/30 00:52:59;;;;;;;0.52;0.40;;;;;;;;;;5014895;28;20045;-83
2024/01/30 00:55:25;;;;;;;0.98;0.95;;;;;;;;;;5013594;28;20091;-83
2024/01/30 00:57:51;;;;;;;0.25;0.25;;;;;;;;;;4981142;28;20050;-83
2024/01/30 01:00:18;;;;;;;0.13;0.13;;;;;;;;;;4997308;28;20101;-84
2024/01/30 01:02:44;;;;;;;0.20;0.20;;;;;;;;;;4996351;28;20046;-83
2024/01/30 01:05:10;;;;;;;0.10;0.10;;;;;;;;;;4981214;28;20493;-83
2024/01/30 01:07:36;;;;;;;0.20;0.20;;;;;;;;;;4997097;28;20037;-83
2024/01/30 01:10:03;;;;;;;0.20;0.20;;;;;;;;;;4981131;28;20177;-83
2024/01/30 01:12:29;;;;;;;0.10;0.10;;;;;;;;;;4980878;28;20038;-83
2024/01/30 01:14:55;;;;;;;0.10;0.10;;;;;;;;;;4983859;28;20460;-83
2024/01/30 01:17:21;;;;;;;0.10;0.10;;;;;;;;;;5016491;28;20528;-84
2024/01/30 01:19:47;;;;;;;0.10;0.10;;;;;;;;;;5000006;28;20048;-83
2024/01/30 01:22:13;;;;;;;0.10;0.10;;;;;;;;;;5016401;28;20053;-83
2024/01/30 01:24:40;;;;;;;0.38;0.38;;;;;;;;;;5000199;28;20244;-83
2024/01/30 01:27:06;;;;;;;0.10;0.10;;;;;;;;;;5016343;28;20042;-83
2024/01/30 01:29:32;;;;;;;0.20;0.20;;;;;;;;;;5000101;28;20041;-82
2024/01/30 01:32:01;;;;;;;0.10;0.10;;;;;;;;;;5000107;28;20041;-83
2024/01/30 01:34:27;;;;;;;0.20;0.20;;;;;;;;;;5000087;28;20056;-82
2024/01/30 01:36:55;;;;;;;0.20;0.20;;;;;;;;;;4999555;28;20048;-83
2024/01/30 01:39:21;;;;;;;0.17;0.17;;;;;;;;;;4999693;28;20037;-83
2024/01/30 01:41:47;;;;;;;0.10;0.10;;;;;;;;;;4999690;28;20076;-83
2024/01/30 01:44:13;;;;;;;1.00;0.32;;;;;;;;;;5015972;28;20041;-83
2024/01/30 01:46:39;;;;;;;0.10;0.10;;;;;;;;;;5015974;28;20045;-83
2024/01/30 01:49:05;;;;;;;0.20;0.20;;;;;;;;;;5015918;28;20044;-86
2024/01/30 01:51:32;;;;;;;0.10;0.10;;;;;;;;;;4999563;28;20190;-84
2024/01/30 01:53:58;;;;;;;0.10;0.10;;;;;;;;;;4999458;28;20045;-83
2024/01/30 01:56:24;;;;;;;0.10;0.10;;;;;;;;;;5015702;28;20519;-83
2024/01/30 01:58:50;;;;;;;0.10;0.10;;;;;;;;;;5015905;28;20243;-83
2024/01/30 02:01:17;;;;;;;0.10;0.10;;;;;;;;;;5015636;28;20041;-83
2024/01/30 02:03:43;;;;;;;0.32;0.20;;;;;;;;;;4999317;28;20041;-84
2024/01/30 02:06:09;;;;;;;0.20;0.20;;;;;;;;;;5015667;28;20445;-83
2024/01/30 02:08:35;;;;;;;0.10;0.10;;;;;;;;;;5015478;28;20120;-82
2024/01/30 02:11:01;;;;;;;0.10;0.10;;;;;;;;;;4998994;28;20124;-83
2024/01/30 02:13:27;;;;;;;0.35;0.32;;;;;;;;;;5015317;28;20049;-83
2024/01/30 02:15:53;;;;;;;0.20;0.20;;;;;;;;;;4998832;28;20115;-83
2024/01/30 02:18:21;;;;;;;0.30;0.30;;;;;;;;;;4998796;28;20041;-83
2024/01/30 02:20:47;;;;;;;0.17;0.17;;;;;;;;;;4999045;28;20136;-83
2024/01/30 02:23:13;;;;;;;0.38;0.38;;;;;;;;;;5015190;28;20129;-83
2024/01/30 02:25:46;;;;;;;0.20;0.20;;;;;;;;;;4998753;28;20044;-83
2024/01/30 02:28:12;;;;;;;0.20;0.20;;;;;;;;;;4998855;28;20477;-83
2024/01/30 02:30:43;;;;;;;0.22;0.22;;;;;;;;;;5015047;28;20068;-83
2024/01/30 02:33:09;;;;;;;0.10;0.10;;;;;;;;;;4998636;28;20053;-83
2024/01/30 02:35:35;;;;;;;0.10;0.10;;;;;;;;;;4998783;28;20052;-83
2024/01/30 02:38:01;;;;;;;0.30;0.30;;;;;;;;;;5015049;28;20079;-84
2024/01/30 02:40:27;;;;;;;0.20;0.20;;;;;;;;;;4998499;28;20049;-83
2024/01/30 02:42:53;;;;;;;0.10;0.10;;;;;;;;;;5014833;28;20183;-84
2024/01/30 02:45:19;;;;;;;0.10;0.10;;;;;;;;;;5014891;28;20042;-82
2024/01/30 02:47:46;;;;;;;0.20;0.20;;;;;;;;;;4998668;28;20124;-84
2024/01/30 02:50:12;;;;;;;0.20;0.20;;;;;;;;;;5014783;28;20037;-83
2024/01/30 02:52:38;;;;;;;0.10;0.10;;;;;;;;;;5014876;28;20352;-83
2024/01/30 02:55:04;;;;;;;0.10;0.10;;;;;;;;;;5015002;28;20103;-83
2024/01/30 02:57:30;;;;;;;0.10;0.10;;;;;;;;;;5014689;28;20056;-83
2024/01/30 02:59:56;;;;;;;0.20;0.20;;;;;;;;;;4998239;28;20041;-83
2024/01/30 03:02:22;;;;;;;0.30;0.30;;;;;;;;;;4998079;28;20046;-83
2024/01/30 03:04:49;;;;;;;0.20;0.20;;;;;;;;;;4998738;28;20037;-83
2024/01/30 03:07:15;;;;;;;0.10;0.10;;;;;;;;;;5014964;28;20553;-83
2024/01/30 03:09:44;;;;;;;0.20;0.20;;;;;;;;;;4998551;28;20384;-84
2024/01/30 03:12:10;;;;;;;0.20;0.20;;;;;;;;;;5014491;28;20088;-84
2024/01/30 03:14:36;;;;;;;0.10;0.10;;;;;;;;;;5014309;28;20052;-84
2024/01/30 03:17:02;;;;;;;0.20;0.20;;;;;;;;;;4998180;28;20049;-83
2024/01/30 03:19:28;;;;;;;0.10;0.10;;;;;;;;;;4998049;28;20053;-83
2024/01/30 03:21:54;;;;;;;0.20;0.20;;;;;;;;;;5014346;28;20042;-83
2024/01/30 03:24:20;;;;;;;0.20;0.13;;;;;;;;;;4998088;28;20045;-83
2024/01/30 03:26:46;;;;;;;0.10;0.10;;;;;;;;;;4997691;28;20071;-83
2024/01/30 03:29:13;;;;;;;0.80;0.20;;;;;;;;;;4997905;28;20063;-83
2024/01/30 03:31:39;;;;;;;0.30;0.30;;;;;;;;;;4997981;28;20041;-83
2024/01/30 03:34:05;;;;;;;0.10;0.10;;;;;;;;;;4998060;28;20038;-83
2024/01/30 03:36:33;;;;;;;0.15;0.15;;;;;;;;;;5014337;28;20042;-84
2024/01/30 03:38:59;;;;;;;0.10;0.10;;;;;;;;;;4998207;28;20038;-83
2024/01/30 03:41:25;;;;;;;0.13;0.13;;;;;;;;;;4997654;28;20128;-83
2024/01/30 03:43:51;;;;;;;0.30;0.30;;;;;;;;;;4997874;28;20125;-84
2024/01/30 03:46:17;;;;;;;0.20;0.20;;;;;;;;;;5014316;28;20049;-83
2024/01/30 03:48:43;;;;;;;0.47;0.47;;;;;;;;;;5014207;28;20036;-83
2024/01/30 03:51:14;;;;;;;0.10;0.10;;;;;;;;;;4997828;28;20045;-83
2024/01/30 03:53:41;;;;;;;0.65;0.50;;;;;;;;;;5014179;28;20049;-84
2024/01/30 03:56:07;;;;;;;0.20;0.20;;;;;;;;;;5014073;28;20073;-83
2024/01/30 03:58:33;;;;;;;0.70;0.70;;;;;;;;;;4997753;28;20384;-83
2024/01/30 04:00:59;;;;;;;0.10;0.10;;;;;;;;;;5014015;28;20389;-82
2024/01/30 04:03:25;;;;;;;0.10;0.10;;;;;;;;;;5030484;28;20060;-83
2024/01/30 04:05:54;;;;;;;0.10;0.10;;;;;;;;;;4997900;28;20455;-83
2024/01/30 04:08:21;;;;;;;0.20;0.20;;;;;;;;;;4997685;28;20037;-83
2024/01/30 04:10:47;;;;;;;0.32;0.20;;;;;;;;;;5013711;28;20254;-83
2024/01/30 04:13:13;;;;;;;0.20;0.20;;;;;;;;;;5013702;28;20053;-83
2024/01/30 04:15:39;;;;;;;0.10;0.10;;;;;;;;;;5013704;28;20054;-83
2024/01/30 04:18:05;;;;;;;0.10;0.10;;;;;;;;;;5030553;28;20048;-83
2024/01/30 04:20:31;;;;;;;0.30;0.30;;;;;;;;;;5013961;28;20065;-83
2024/01/30 04:22:57;;;;;;;0.20;0.20;;;;;;;;;;4997618;28;20041;-83
2024/01/30 04:25:24;;;;;;;0.30;0.30;;;;;;;;;;5031570;28;20077;-82
2024/01/30 04:27:50;;;;;;;0.20;0.20;;;;;;;;;;4997548;28;20124;-83
2024/01/30 04:30:16;;;;;;;0.10;0.10;;;;;;;;;;5013723;28;20091;-82
2024/01/30 04:32:42;;;;;;;0.10;0.10;;;;;;;;;;5013839;28;20073;-84
2024/01/30 04:35:08;;;;;;;0.20;0.20;;;;;;;;;;5013831;28;20543;-83
2024/01/30 04:37:34;;;;;;;0.13;0.13;;;;;;;;;;4998295;28;20128;-83
2024/01/30 04:40:00;;;;;;;0.15;0.15;;;;;;;;;;5000790;28;20042;-83
2024/01/30 04:42:26;;;;;;;0.25;0.25;;;;;;;;;;5000743;28;20087;-83
2024/01/30 04:44:52;;;;;;;0.10;0.10;;;;;;;;;;5001102;28;20049;-84
2024/01/30 04:47:18;;;;;;;0.17;0.17;;;;;;;;;;5017142;28;20083;-84
2024/01/30 04:49:44;;;;;;;0.30;0.30;;;;;;;;;;5000800;28;20041;-84
2024/01/30 04:52:10;;;;;;;0.10;0.10;;;;;;;;;;5000689;28;20447;-83
2024/01/30 04:54:36;;;;;;;0.10;0.10;;;;;;;;;;5016957;28;20045;-83
2024/01/30 04:57:03;;;;;;;0.50;0.50;;;;;;;;;;5017112;28;20396;-84
2024/01/30 04:59:29;;;;;;;0.15;0.15;;;;;;;;;;5000685;28;20099;-84
2024/01/30 05:01:56;;;;;;;0.20;0.20;;;;;;;;;;5000423;28;20047;-84
2024/01/30 05:04:22;;;;;;;0.20;0.20;;;;;;;;;;5000729;28;20095;-83
2024/01/30 05:06:48;;;;;;;0.10;0.10;;;;;;;;;;5000705;28;20171;-84
2024/01/30 05:09:15;;;;;;;0.10;0.10;;;;;;;;;;5000368;28;20041;-84
2024/01/30 05:11:41;;;;;;;0.17;0.17;;;;;;;;;;5000310;28;20034;-84
2024/01/30 05:14:08;;;;;;;0.25;0.25;;;;;;;;;;5016567;28;20042;-83
2024/01/30 05:16:34;;;;;;;1.35;0.20;;;;;;;;;;5000171;28;20068;-84
2024/01/30 05:19:00;;;;;;;0.10;0.10;;;;;;;;;;5016798;28;20045;-84
2024/01/30 05:21:26;;;;;;;0.20;0.20;;;;;;;;;;5016447;28;20513;-84
2024/01/30 05:23:54;;;;;;;0.10;0.10;;;;;;;;;;5016342;28;20048;-84
2024/01/30 05:26:20;;;;;;;0.40;0.40;;;;;;;;;;5000178;28;20038;-84
2024/01/30 05:28:46;;;;;;;0.10;0.10;;;;;;;;;;5000134;28;20069;-83
2024/01/30 05:31:12;;;;;;;0.10;0.10;;;;;;;;;;5000065;28;20042;-84
2024/01/30 05:33:38;;;;;;;0.43;0.43;;;;;;;;;;4999958;28;20049;-84
2024/01/30 05:36:04;;;;;;;0.10;0.10;;;;;;;;;;5016156;28;20137;-85
2024/01/30 05:38:31;;;;;;;0.28;0.28;;;;;;;;;;4999710;28;20053;-84
2024/01/30 05:40:58;;;;;;;0.10;0.10;;;;;;;;;;4999854;28;20128;-84
2024/01/30 05:43:24;;;;;;;0.10;0.10;;;;;;;;;;4999813;28;20097;-84
2024/01/30 05:45:51;;;;;;;0.15;0.15;;;;;;;;;;4999691;28;20132;-84
2024/01/30 05:48:17;;;;;;;0.10;0.10;;;;;;;;;;4999317;28;20046;-84
2024/01/30 05:50:44;;;;;;;0.10;0.10;;;;;;;;;;4999611;28;20052;-84
2024/01/30 05:53:10;;;;;;;0.10;0.10;;;;;;;;;;5015957;28;20409;-84
2024/01/30 05:55:36;;;;;;;0.32;0.28;;;;;;;;;;5016078;28;20453;-84
2024/01/30 05:58:03;;;;;;;0.20;0.20;;;;;;;;;;4999388;28;20499;-84
2024/01/30 06:00:29;;;;;;;0.13;0.13;;;;;;;;;;5015620;28;20133;-84
2024/01/30 06:02:55;;;;;;;0.47;0.47;;;;;;;;;;4999612;28;20041;-84
2024/01/30 06:05:22;;;;;;;0.17;0.17;;;;;;;;;;4999236;28;20042;-84
2024/01/30 06:07:48;;;;;;;0.45;0.45;;;;;;;;;;4999586;28;20067;-84
2024/01/30 06:10:14;;;;;;;0.40;0.40;;;;;;;;;;4999582;28;20038;-84
2024/01/30 06:12:40;;;;;;;0.77;0.20;;;;;;;;;;5015493;28;20106;-83
2024/01/30 06:15:06;;;;;;;0.20;0.20;;;;;;;;;;5015273;28;20140;-83
2024/01/30 06:17:32;;;;;;;0.20;0.20;;;;;;;;;;5015451;28;20041;-83
2024/01/30 06:19:59;;;;;;;0.20;0.20;;;;;;;;;;4999245;28;20417;-84
2024/01/30 06:22:25;;;;;;;0.20;0.20;;;;;;;;;;5015697;28;20493;-84
2024/01/30 06:24:51;;;;;;;0.35;0.35;;;;;;;;;;5015240;28;20044;-83
2024/01/30 06:27:17;;;;;;;0.20;0.20;;;;;;;;;;4998934;28;20034;-84
2024/01/30 06:29:44;;;;;;;0.30;0.30;;;;;;;;;;4999102;28;20044;-83
2024/01/30 06:32:10;;;;;;;0.30;0.30;;;;;;;;;;5015285;28;20049;-84
2024/01/30 06:34:36;;;;;;;0.57;0.20;;;;;;;;;;5031642;28;20033;-83
2024/01/30 06:37:02;;;;;;;0.40;0.30;;;;;;;;;;4998835;28;20037;-84
2024/01/30 06:39:28;;;;;;;0.25;0.25;;;;;;;;;;4998821;28;20034;-84
2024/01/30 06:41:54;;;;;;;0.10;0.10;;;;;;;;;;5014868;28;20084;-84
2024/01/30 06:44:20;;;;;;;0.38;0.38;;;;;;;;;;5014993;28;20049;-85
2024/01/30 06:46:46;;;;;;;0.30;0.22;;;;;;;;;;5014989;28;20404;-85
2024/01/30 06:49:12;;;;;;;0.20;0.20;;;;;;;;;;5015112;28;20056;-84
2024/01/30 06:51:38;;;;;;;0.22;0.22;;;;;;;;;;4998537;28;20038;-84
2024/01/30 06:54:04;;;;;;;0.20;0.20;;;;;;;;;;5014800;28;20504;-84
2024/01/30 06:56:30;;;;;;;0.10;0.10;;;;;;;;;;4998521;28;20045;-84
2024/01/30 06:58:59;;;;;;;0.30;0.30;;;;;;;;;;5014902;28;20045;-84
2024/01/30 07:01:32;;;;;;;0.10;0.10;;;;;;;;;;5013840;28;20042;-84
2024/01/30 07:03:58;;;;;;;0.10;0.10;;;;;;;;;;5014733;28;20083;-85
2024/01/30 07:06:24;;;;;;;0.45;0.45;;;;;;;;;;4998522;28;20042;-84
2024/01/30 07:08:50;;;;;;;1.00;0.43;;;;;;;;;;5014871;28;20104;-85
2024/01/30 07:11:22;;;;;;;0.17;0.17;;;;;;;;;;5014443;28;20041;-83
2024/01/30 07:13:48;;;;;;;0.20;0.20;;;;;;;;;;4998725;28;20045;-91
2024/01/30 07:16:14;;;;;;;0.40;0.40;;;;;;;;;;4998070;28;20057;-86
2024/01/30 07:18:40;;;;;;;0.30;0.20;;;;;;;;;;4998498;28;20045;-85
2024/01/30 07:21:06;;;;;;;0.15;0.15;;;;;;;;;;4998037;28;20076;-85
2024/01/30 07:23:34;;;;;;;0.10;0.10;;;;;;;;;;4998285;28;20045;-84
2024/01/30 07:26:00;;;;;;;0.63;0.38;;;;;;;;;;4998343;28;20042;-86
2024/01/30 07:28:26;;;;;;;0.10;0.10;;;;;;;;;;4998034;28;20092;-86
2024/01/30 07:30:52;;;;;;;0.10;0.10;;;;;;;;;;4997939;28;20042;-89
2024/01/30 07:33:18;;;;;;;0.10;0.10;;;;;;;;;;4998315;28;20143;-85
2024/01/30 07:35:45;;;;;;;0.20;0.20;;;;;;;;;;4998204;28;20099;-85
2024/01/30 07:38:11;;;;;;;0.20;0.20;;;;;;;;;;4998097;28;20362;-85
2024/01/30 07:40:38;;;;;;;0.35;0.35;;;;;;;;;;4998331;28;20041;-85
2024/01/30 07:43:04;;;;;;;0.20;0.20;;;;;;;;;;4997979;28;20475;-85
2024/01/30 07:45:32;;;;;;;0.30;0.20;;;;;;;;;;5014342;28;20456;-86
2024/01/30 07:47:59;;;;;;;0.10;0.10;;;;;;;;;;4997921;28;20037;-85
2024/01/30 07:50:26;;;;;;;0.20;0.20;;;;;;;;;;5014470;28;20103;-85
2024/01/30 07:52:54;;;;;;;0.10;0.10;;;;;;;;;;5014492;28;20037;-85
2024/01/30 07:55:27;;;;;;;0.20;0.20;;;;;;;;;;4997931;28;20046;-85
2024/01/30 07:57:53;;;;;;;;;;;;;;;;;;4998537;28;20461;-87
2024/01/30 08:00:22;;;;;;;0.10;0.10;;;;;;;;;;5013963;28;19963;-85
2024/01/30 08:02:55;;;;;;;0.30;0.30;;;;;;;;;;4997719;28;20045;-86
2024/01/30 08:05:22;;;;;;;0.10;0.10;;;;;;;;;;4997946;28;20057;-83
2024/01/30 08:07:48;;;;;;;0.25;0.25;;;;;;;;;;5014396;28;20374;-86
2024/01/30 08:10:14;;;;;;;0.80;0.80;;;;;;;;;;4998029;28;20037;-84
2024/01/30 08:12:40;;;;;;;0.10;0.10;;;;;;;;;;5016613;28;20497;-82
2024/01/30 08:15:07;;;;;;;0.43;0.43;;;;;;;;;;5017616;28;20057;-83
2024/01/30 08:17:33;;;;;;;0.30;0.30;;;;;;;;;;5017813;28;20051;-83
2024/01/30 08:19:59;;;;;;;0.20;0.20;;;;;;;;;;5034266;28;20050;-83
2024/01/30 08:22:25;;;;;;;0.10;0.10;;;;;;;;;;5017891;28;20396;-84
2024/01/30 08:24:51;;;;;;;0.20;0.20;;;;;;;;;;5001949;28;20513;-83
2024/01/30 08:27:17;;;;;;;0.10;0.10;;;;;;;;;;5001346;28;20041;-83
2024/01/30 08:29:43;;;;;;;0.13;0.13;;;;;;;;;;5001132;28;20078;-83
2024/01/30 08:32:11;;;;;;;0.13;0.13;;;;;;;;;;5017719;28;20065;-82
2024/01/30 08:34:37;;;;;;;0.22;0.22;;;;;;;;;;5017461;28;20116;-84
2024/01/30 08:37:03;;;;;;;0.30;0.30;;;;;;;;;;5001238;28;20093;-83
2024/01/30 08:39:31;;;;;;;0.40;0.40;;;;;;;;;;5001332;28;20083;-84
2024/01/30 08:41:57;;;;;;;0.25;0.25;;;;;;;;;;5017298;28;20136;-84
2024/01/30 08:44:23;;;;;;;0.15;0.15;;;;;;;;;;5000955;28;20079;-84
2024/01/30 08:46:50;;;;;;;0.40;0.40;;;;;;;;;;5017423;28;20045;-84
2024/01/30 08:49:20;;;;;;;0.20;0.20;;;;;;;;;;5000936;28;20042;-84
2024/01/30 08:51:47;;;;;;;0.10;0.10;;;;;;;;;;5017197;28;20390;-82
2024/01/30 08:54:13;;;;;;;0.10;0.10;;;;;;;;;;5000623;28;20048;-82
2024/01/30 08:56:39;;;;;;;0.10;0.10;;;;;;;;;;5000862;28;20384;-84
2024/01/30 08:59:05;;;;;;;0.10;0.10;;;;;;;;;;5017035;28;20045;-83
2024/01/30 09:01:31;;;;;;;0.17;0.17;;;;;;;;;;5000530;28;20041;-83
2024/01/30 09:03:57;;;;;;;0.17;0.17;;;;;;;;;;5000514;28;20052;-83
2024/01/30 09:06:28;;;;;;;0.20;0.20;;;;;;;;;;5000877;28;20432;-84
2024/01/30 09:08:54;;;;;;;0.10;0.10;;;;;;;;;;5016787;28;20099;-86
2024/01/30 09:11:20;;;;;;;0.10;0.10;;;;;;;;;;5017392;28;20045;-84
2024/01/30 09:13:46;;;;;;;0.20;0.20;;;;;;;;;;5000115;28;20096;-84
2024/01/30 09:16:12;;;;;;;0.10;0.10;;;;;;;;;;4999947;28;20050;-85
2024/01/30 09:18:39;;;;;;;0.30;0.30;;;;;;;;;;5016430;28;20091;-86
2024/01/30 09:21:05;;;;;;;0.20;0.20;;;;;;;;;;5000179;28;20041;-86
2024/01/30 09:23:31;;;;;;;0.10;0.10;;;;;;;;;;4999084;28;20128;-86
2024/01/30 09:25:57;;;;;;;0.28;0.28;;;;;;;;;;5000039;28;20041;-86
2024/01/30 09:28:23;;;;;;;0.15;0.15;;;;;;;;;;5014652;28;20048;-83
2024/01/30 09:30:49;;;;;;;0.10;0.10;;;;;;;;;;5019472;28;20147;-83
2024/01/30 09:33:16;;;;;;;0.20;0.20;;;;;;;;;;5035885;28;20051;-82
2024/01/30 09:35:42;;;;;;;0.10;0.10;;;;;;;;;;5003472;28;20102;-82
2024/01/30 09:38:08;;;;;;;0.10;0.10;;;;;;;;;;5035715;28;20037;-84
2024/01/30 09:40:34;;;;;;;0.10;0.10;;;;;;;;;;5019097;28;20040;-85
2024/01/30 09:43:00;;;;;;;0.15;0.15;;;;;;;;;;5019104;28;20092;-85
2024/01/30 09:45:26;;;;;;;0.10;0.10;;;;;;;;;;5019746;28;20384;-85
2024/01/30 09:47:52;;;;;;;3.63;0.50;;;;;;;;;;5003045;28;20041;-86
2024/01/30 09:50:19;;;;;;;0.43;0.30;;;;;;;;;;5035573;28;20379;-85
2024/01/30 09:52:45;;;;;;;0.10;0.10;;;;;;;;;;5035505;28;20045;-85
2024/01/30 09:55:11;;;;;;;0.10;0.10;;;;;;;;;;5003154;28;20113;-85
2024/01/30 09:57:37;;;;;;;0.10;0.10;;;;;;;;;;5003036;28;20045;-84
2024/01/30 10:00:04;;;;;;;0.30;0.30;;;;;;;;;;5019003;28;20095;-84
2024/01/30 10:02:31;;;;;;;0.10;0.10;;;;;;;;;;5035581;28;20049;-84
2024/01/30 10:04:58;;;;;;;0.10;0.10;;;;;;;;;;5019453;28;20484;-84
2024/01/30 10:07:24;;;;;;;0.10;0.10;;;;;;;;;;5001974;28;20044;-84
2024/01/30 10:09:50;;;;;;;0.20;0.20;;;;;;;;;;5035542;28;20532;-84
2024/01/30 10:12:16;;;;;;;0.10;0.10;;;;;;;;;;5017781;28;20079;-84
2024/01/30 10:14:42;;;;;;;0.10;0.10;;;;;;;;;;5002687;28;20144;-83
2024/01/30 10:17:12;;;;;;;0.10;0.10;;;;;;;;;;5018893;28;20056;-83
2024/01/30 10:19:41;;;;;;;0.17;0.17;;;;;;;;;;5035085;28;20128;-84
2024/01/30 10:22:08;;;;;;;0.10;0.10;;;;;;;;;;5035180;28;20169;-83
2024/01/30 10:24:34;;;;;;;0.20;0.20;;;;;;;;;;5018996;28;20037;-84
2024/01/30 10:27:00;;;;;;;0.47;0.47;;;;;;;;;;5034953;28;20041;-84
2024/01/30 10:29:27;;;;;;;0.10;0.10;;;;;;;;;;5018355;28;20115;-83
2024/01/30 10:32:03;;;;;;;0.32;0.32;;;;;;;;;;5019020;28;20057;-83
2024/01/30 10:34:29;;;;;;;0.20;0.20;;;;;;;;;;5071002;28;20132;-83
2024/01/30 10:37:17;;;;;;;0.10;0.10;;;;;;;;;;5037826;28;20119;-84
2024/01/30 10:39:44;;;;;;;0.20;0.20;;;;;;;;;;5039289;28;20094;-82
2024/01/30 10:42:13;;;;;;;0.20;0.20;;;;;;;;;;5037913;28;20589;-82
2024/01/30 10:45:04;;;;;;;0.20;0.20;;;;;;;;;;5037569;28;20040;-88
2024/01/30 10:47:30;;;;;;;0.10;0.10;;;;;;;;;;5029549;28;20084;-83
2024/01/30 10:49:56;;;;;;;0.10;0.10;;;;;;;;;;5018169;28;20037;-83
2024/01/30 10:52:25;;;;;;;0.13;0.13;;;;;;;;;;5021431;28;20040;-83
2024/01/30 10:54:51;;;;;;;0.10;0.10;;;;;;;;;;5054233;28;20040;-83
2024/01/30 10:57:17;;;;;;;0.17;0.17;;;;;;;;;;5053833;28;20506;-83
2024/01/30 10:59:44;;;;;;;0.10;0.10;;;;;;;;;;5038305;28;20422;-82
2024/01/30 11:02:11;;;;;;;0.10;0.10;;;;;;;;;;5040501;28;20040;-85
2024/01/30 11:04:38;;;;;;;0.20;0.20;;;;;;;;;;5038475;28;20094;-83
2024/01/30 11:07:17;;;;;;;0.20;0.20;;;;;;;;;;5037332;28;20052;-83
2024/01/30 11:09:50;;;;;;;0.30;0.30;;;;;;;;;;5038064;28;20110;-82
2024/01/30 11:12:17;;;;;;;0.10;0.10;;;;;;;;;;5053896;28;20040;-84
2024/01/30 11:14:43;;;;;;;0.20;0.20;;;;;;;;;;5054391;28;20036;-83
2024/01/30 11:17:12;;;;;;;0.10;0.10;;;;;;;;;;5038347;28;20079;-83
2024/01/30 11:19:39;;;;;;;0.30;0.30;;;;;;;;;;5056477;28;20048;-83
2024/01/30 11:22:07;;;;;;;0.20;0.20;;;;;;;;;;5033917;28;20469;-83
2024/01/30 11:24:37;;;;;;;0.20;0.20;;;;;;;;;;5046908;28;20040;-83
2024/01/30 11:27:03;;;;;;;0.10;0.10;;;;;;;;;;5054342;28;20368;-85
2024/01/30 11:29:30;;;;;;;0.10;0.10;;;;;;;;;;5053903;28;20055;-85
2024/01/30 11:31:56;;;;;;;0.20;0.20;;;;;;;;;;5037545;28;20036;-86
2024/01/30 11:34:23;;;;;;;0.35;0.20;;;;;;;;;;5037148;28;20476;-83
2024/01/30 11:36:54;;;;;;;0.20;0.20;;;;;;;;;;5037243;28;20500;-83
2024/01/30 11:39:22;;;;;;;0.10;0.10;;;;;;;;;;5037783;28;20420;-83
2024/01/30 11:41:48;;;;;;;0.10;0.10;;;;;;;;;;5037396;28;20488;-82
2024/01/30 11:44:14;;;;;;;0.20;0.20;;;;;;;;;;5037079;28;20040;-83
2024/01/30 11:46:40;;;;;;;0.20;0.20;;;;;;;;;;5047069;28;20045;-83
2024/01/30 11:49:07;;;;;;;0.30;0.30;;;;;;;;;;5005321;28;20396;-83
2024/01/30 11:51:33;;;;;;;0.10;0.10;;;;;;;;;;5021321;28;20052;-83
2024/01/30 11:53:59;;;;;;;0.20;0.20;;;;;;;;;;5037931;28;20037;-84
2024/01/30 11:56:26;;;;;;;0.10;0.10;;;;;;;;;;5021425;28;20275;-84
2024/01/30 11:58:53;;;;;;;0.10;0.10;;;;;;;;;;5005193;28;20041;-83
2024/01/30 12:01:19;;;;;;;0.10;0.10;;;;;;;;;;5021220;28;20044;-83
2024/01/30 12:03:51;;;;;;;0.13;0.13;;;;;;;;;;5021153;28;20041;-83
2024/01/30 12:06:17;;;;;;;0.10;0.10;;;;;;;;;;5005056;28;20045;-84
2024/01/30 12:08:44;;;;;;;0.10;0.10;;;;;;;;;;5021359;28;20106;-84
2024/01/30 12:11:10;;;;;;;0.20;0.20;;;;;;;;;;5037624;28;20036;-85
2024/01/30 12:13:36;;;;;;;0.30;0.30;;;;;;;;;;5037711;28;20056;-87
2024/01/30 12:16:03;;;;;;;0.47;0.30;;;;;;;;;;5021211;28;20064;-84
2024/01/30 12:18:30;;;;;;;0.10;0.10;;;;;;;;;;5037308;28;20484;-84
2024/01/30 12:20:59;;;;;;;0.17;0.17;;;;;;;;;;5021016;28;20041;-83
2024/01/30 12:23:25;;;;;;;0.10;0.10;;;;;;;;;;5037693;28;20554;-84
2024/01/30 12:25:52;;;;;;;0.40;0.40;;;;;;;;;;5037737;28;20037;-83
2024/01/30 12:28:18;;;;;;;0.20;0.20;;;;;;;;;;5037278;28;20041;-83
2024/01/30 12:30:44;;;;;;;0.20;0.20;;;;;;;;;;5037348;28;20159;-83
2024/01/30 12:33:10;;;;;;;0.10;0.10;;;;;;;;;;5037057;28;20060;-83
2024/01/30 12:35:36;;;;;;;0.40;0.30;;;;;;;;;;5038042;28;20045;-84
2024/01/30 12:38:03;;;;;;;0.20;0.20;;;;;;;;;;5023885;28;20041;-83
2024/01/30 12:40:30;;;;;;;0.10;0.10;;;;;;;;;;5036858;28;20365;-83
2024/01/30 12:42:56;;;;;;;0.40;0.28;;;;;;;;;;5036925;28;20045;-84
2024/01/30 12:45:22;;;;;;;0.10;0.10;;;;;;;;;;5020862;28;20033;-83
2024/01/30 12:47:48;;;;;;;0.20;0.20;;;;;;;;;;5037056;28;20043;-83
2024/01/30 12:50:15;;;;;;;0.10;0.10;;;;;;;;;;5004468;28;20391;-83
2024/01/30 12:52:42;;;;;;;1.45;0.50;;;;;;;;;;5037118;28;20495;-83
2024/01/30 12:55:08;;;;;;;0.10;0.10;;;;;;;;;;5020740;28;20087;-83
2024/01/30 12:57:34;;;;;;;0.10;0.10;;;;;;;;;;5019907;28;20045;-82
2024/01/30 13:00:00;;;;;;;0.25;0.25;;;;;;;;;;5035888;28;20132;-82
2024/01/30 13:02:30;;;;;;;0.20;0.20;;;;;;;;;;5004125;28;20463;-81
2024/01/30 13:04:56;;;;;;;0.32;0.32;;;;;;;;;;5020053;28;20041;-82
2024/01/30 13:07:22;;;;;;;0.20;0.20;;;;;;;;;;5020266;28;20049;-81
2024/01/30 13:09:48;;;;;;;0.20;0.20;;;;;;;;;;5020441;28;20037;-82
2024/01/30 13:12:14;;;;;;;0.10;0.10;;;;;;;;;;5004159;28;20545;-82
2024/01/30 13:14:40;;;;;;;0.20;0.20;;;;;;;;;;5036320;28;20040;-82
2024/01/30 13:17:06;;;;;;;0.10;0.10;;;;;;;;;;5020076;28;20049;-82
2024/01/30 13:19:32;;;;;;;0.10;0.10;;;;;;;;;;5003673;28;20037;-81
2024/01/30 13:21:58;;;;;;;0.20;0.20;;;;;;;;;;5019341;28;20037;-81
2024/01/30 13:24:25;;;;;;;0.10;0.10;;;;;;;;;;5002110;28;20045;-84
2024/01/30 13:26:51;;;;;;;0.10;0.10;;;;;;;;;;5019713;28;20209;-82
2024/01/30 13:29:17;;;;;;;0.20;0.20;;;;;;;;;;5036155;28;20224;-82
2024/01/30 13:31:44;;;;;;;0.10;0.10;;;;;;;;;;5019616;28;20037;-81
2024/01/30 13:34:10;;;;;;;0.10;0.10;;;;;;;;;;5054084;28;20053;-81
2024/01/30 13:36:36;;;;;;;0.20;0.20;;;;;;;;;;5036241;28;20427;-82
2024/01/30 13:39:02;;;;;;;0.13;0.13;;;;;;;;;;5019407;28;20048;-82
2024/01/30 13:41:29;;;;;;;0.10;0.10;;;;;;;;;;5035903;28;20040;-81
2024/01/30 13:43:56;;;;;;;0.20;0.20;;;;;;;;;;5019035;28;20045;-82
2024/01/30 13:46:22;;;;;;;0.15;0.15;;;;;;;;;;5035943;28;20040;-82
2024/01/30 13:48:48;;;;;;;0.10;0.10;;;;;;;;;;5019777;28;20040;-82
2024/01/30 13:51:16;;;;;;;0.20;0.20;;;;;;;;;;5035524;28;20123;-82
2024/01/30 13:53:45;;;;;;;0.10;0.10;;;;;;;;;;5028364;28;20045;-82
2024/01/30 13:56:11;;;;;;;0.10;0.10;;;;;;;;;;5055387;28;20097;-83
2024/01/30 13:58:37;;;;;;;0.20;0.20;;;;;;;;;;5055242;28;20051;-82
2024/01/30 14:01:04;;;;;;;0.10;0.10;;;;;;;;;;5055745;28;20036;-82
2024/01/30 14:03:30;;;;;;;0.25;0.25;;;;;;;;;;5055231;28;20048;-84
2024/01/30 14:05:57;;;;;;;0.10;0.10;;;;;;;;;;5055700;28;20094;-83
2024/01/30 14:08:26;;;;;;;0.73;0.73;;;;;;;;;;5038535;28;20132;-84
2024/01/30 14:10:52;;;;;;;0.10;0.10;;;;;;;;;;5054921;28;20047;-83
2024/01/30 14:13:18;;;;;;;0.10;0.10;;;;;;;;;;5055217;28;20119;-84
2024/01/30 14:15:46;;;;;;;0.10;0.10;;;;;;;;;;5055099;28;20085;-84
2024/01/30 14:18:12;;;;;;;0.10;0.10;;;;;;;;;;5055207;28;20040;-82
2024/01/30 14:20:38;;;;;;;0.10;0.10;;;;;;;;;;5055135;28;20040;-83
2024/01/30 14:23:04;;;;;;;0.20;0.20;;;;;;;;;;5054484;28;20080;-81
2024/01/30 14:25:30;;;;;;;0.10;0.10;;;;;;;;;;5054772;28;20047;-82
2024/01/30 14:27:56;;;;;;;0.10;0.10;;;;;;;;;;5054776;28;20383;-82
2024/01/30 14:30:22;;;;;;;0.30;0.30;;;;;;;;;;5035850;28;20111;-83
2024/01/30 14:32:48;;;;;;;0.20;0.20;;;;;;;;;;5035203;28;20404;-82
2024/01/30 14:35:15;;;;;;;0.10;0.10;;;;;;;;;;5018426;28;20537;-83
2024/01/30 14:37:41;;;;;;;0.10;0.10;;;;;;;;;;5018704;28;20100;-82
2024/01/30 14:40:07;;;;;;;0.20;0.20;;;;;;;;;;5034903;28;20043;-82